sensor_id;sensor_type;location;lat;lon;timestamp;pressure;altitude;pressure_sealevel;temperature;humidity
27712;BME280;2377;51.734;8.950;2023-02-14T00:01:07;99707.00;;;2.82;92.96
27712;BME280;2377;51.734;8.950;2023-02-14T00:03:36;99700.59;;;2.78;93.03
27712;BME280;2377;51.734;8.950;2023-02-14T00:06:06;99704.00;;;2.77;92.71
27712;BME280;2377;51.734;8.950;2023-02-14T00:08:33;99704.50;;;2.71;93.31
27712;BME280;2377;51.734;8.950;2023-02-14T00:11:01;99700.22;;;2.71;94.11
27712;BME280;2377;51.734;8.950;2023-02-14T00:13:28;99705.03;;;2.74;94.20
27712;BME280;2377;51.734;8.950;2023-02-14T00:15:55;99706.44;;;2.79;94.30
27712;BME280;2377;51.734;8.950;2023-02-14T00:18:21;99708.03;;;2.80;94.24
27712;BME280;2377;51.734;8.950;2023-02-14T00:21:10;99715.59;;;2.80;94.42
27712;BME280;2377;51.734;8.950;2023-02-14T00:23:37;99714.69;;;2.81;93.73
27712;BME280;2377;51.734;8.950;2023-02-14T00:26:04;99711.38;;;2.80;94.12
27712;BME280;2377;51.734;8.950;2023-02-14T00:28:31;99707.13;;;2.81;93.83
27712;BME280;2377;51.734;8.950;2023-02-14T00:31:00;99714.69;;;2.81;94.51
27712;BME280;2377;51.734;8.950;2023-02-14T00:33:27;99708.84;;;2.80;94.97
27712;BME280;2377;51.734;8.950;2023-02-14T00:35:54;99713.78;;;2.82;94.61
27712;BME280;2377;51.734;8.950;2023-02-14T00:38:22;99710.22;;;2.84;94.19
27712;BME280;2377;51.734;8.950;2023-02-14T00:40:49;99715.50;;;2.81;94.38
27712;BME280;2377;51.734;8.950;2023-02-14T00:43:16;99713.22;;;2.78;94.94
27712;BME280;2377;51.734;8.950;2023-02-14T00:45:43;99710.56;;;2.80;94.54
27712;BME280;2377;51.734;8.950;2023-02-14T00:48:10;99709.88;;;2.78;94.87
27712;BME280;2377;51.734;8.950;2023-02-14T00:50:37;99707.56;;;2.74;94.30
27712;BME280;2377;51.734;8.950;2023-02-14T00:53:04;99710.44;;;2.70;95.01
27712;BME280;2377;51.734;8.950;2023-02-14T00:55:32;99713.19;;;2.67;94.06
27712;BME280;2377;51.734;8.950;2023-02-14T00:57:59;99710.09;;;2.63;94.20
27712;BME280;2377;51.734;8.950;2023-02-14T01:00:26;99712.59;;;2.63;94.62
27712;BME280;2377;51.734;8.950;2023-02-14T01:02:53;99724.34;;;2.64;94.40
27712;BME280;2377;51.734;8.950;2023-02-14T01:05:20;99718.81;;;2.59;93.72
27712;BME280;2377;51.734;8.950;2023-02-14T01:07:48;99716.41;;;2.58;94.38
27712;BME280;2377;51.734;8.950;2023-02-14T01:10:15;99726.50;;;2.58;94.49
27712;BME280;2377;51.734;8.950;2023-02-14T01:12:43;99728.09;;;2.59;94.68
27712;BME280;2377;51.734;8.950;2023-02-14T01:15:10;99724.06;;;2.56;94.32
27712;BME280;2377;51.734;8.950;2023-02-14T01:17:37;99723.28;;;2.56;94.41
27712;BME280;2377;51.734;8.950;2023-02-14T01:20:06;99730.16;;;2.53;94.59
27712;BME280;2377;51.734;8.950;2023-02-14T01:22:34;99722.91;;;2.49;93.63
27712;BME280;2377;51.734;8.950;2023-02-14T01:25:02;99731.66;;;2.45;94.32
27712;BME280;2377;51.734;8.950;2023-02-14T01:27:29;99730.16;;;2.42;93.63
27712;BME280;2377;51.734;8.950;2023-02-14T01:29:57;99726.81;;;2.42;93.51
27712;BME280;2377;51.734;8.950;2023-02-14T01:32:24;99725.22;;;2.41;94.71
27712;BME280;2377;51.734;8.950;2023-02-14T01:34:51;99729.47;;;2.40;94.06
27712;BME280;2377;51.734;8.950;2023-02-14T01:37:18;99729.47;;;2.40;94.56
27712;BME280;2377;51.734;8.950;2023-02-14T01:39:44;99730.38;;;2.39;94.39
27712;BME280;2377;51.734;8.950;2023-02-14T01:42:11;99733.03;;;2.38;94.20
27712;BME280;2377;51.734;8.950;2023-02-14T01:45:02;99729.66;;;2.37;94.83
27712;BME280;2377;51.734;8.950;2023-02-14T01:47:33;99727.97;;;2.38;94.54
27712;BME280;2377;51.734;8.950;2023-02-14T01:50:07;99737.13;;;2.39;94.46
27712;BME280;2377;51.734;8.950;2023-02-14T01:52:42;99736.44;;;2.37;95.10
27712;BME280;2377;51.734;8.950;2023-02-14T01:55:14;99736.66;;;2.33;94.84
27712;BME280;2377;51.734;8.950;2023-02-14T01:57:48;99729.44;;;2.29;94.44
27712;BME280;2377;51.734;8.950;2023-02-14T02:00:18;99728.63;;;2.28;94.64
27712;BME280;2377;51.734;8.950;2023-02-14T02:03:13;99717.06;;;2.26;94.52
27712;BME280;2377;51.734;8.950;2023-02-14T02:05:47;99726.31;;;2.25;94.37
27712;BME280;2377;51.734;8.950;2023-02-14T02:08:14;99715.53;;;2.23;94.27
27712;BME280;2377;51.734;8.950;2023-02-14T02:10:41;99713.22;;;2.20;94.12
27712;BME280;2377;51.734;8.950;2023-02-14T02:13:16;99712.53;;;2.18;94.29
27712;BME280;2377;51.734;8.950;2023-02-14T02:15:57;99712.78;;;2.15;94.25
27712;BME280;2377;51.734;8.950;2023-02-14T02:18:42;99708.84;;;2.11;93.64
27712;BME280;2377;51.734;8.950;2023-02-14T02:21:58;99705.06;;;2.05;93.58
27712;BME280;2377;51.734;8.950;2023-02-14T02:24:46;99697.59;;;2.04;94.56
27712;BME280;2377;51.734;8.950;2023-02-14T02:27:52;99703.56;;;2.03;94.48
27712;BME280;2377;51.734;8.950;2023-02-14T02:31:10;99702.88;;;2.01;94.32
27712;BME280;2377;51.734;8.950;2023-02-14T02:34:24;99698.06;;;1.98;94.52
27712;BME280;2377;51.734;8.950;2023-02-14T02:37:15;99697.03;;;2.00;94.75
27712;BME280;2377;51.734;8.950;2023-02-14T02:40:11;99686.25;;;1.98;94.49
27712;BME280;2377;51.734;8.950;2023-02-14T02:42:50;99686.34;;;1.97;94.20
27712;BME280;2377;51.734;8.950;2023-02-14T02:45:33;99684.63;;;1.97;94.52
27712;BME280;2377;51.734;8.950;2023-02-14T02:48:33;99682.22;;;1.96;95.09
27712;BME280;2377;51.734;8.950;2023-02-14T02:51:06;99675.47;;;1.96;95.10
27712;BME280;2377;51.734;8.950;2023-02-14T02:54:03;99672.25;;;1.94;94.97
27712;BME280;2377;51.734;8.950;2023-02-14T02:56:36;99670.53;;;1.95;95.01
27712;BME280;2377;51.734;8.950;2023-02-14T02:59:16;99671.44;;;1.94;94.92
27712;BME280;2377;51.734;8.950;2023-02-14T03:01:49;99666.41;;;1.94;94.68
27712;BME280;2377;51.734;8.950;2023-02-14T03:04:19;99663.75;;;1.95;94.32
27712;BME280;2377;51.734;8.950;2023-02-14T03:07:05;99664.78;;;1.93;94.24
27712;BME280;2377;51.734;8.950;2023-02-14T03:09:54;99657.22;;;1.93;95.36
27712;BME280;2377;51.734;8.950;2023-02-14T03:16:34;99651.94;;;1.84;94.94
27712;BME280;2377;51.734;8.950;2023-02-14T03:19:41;99648.03;;;1.80;94.71
27712;BME280;2377;51.734;8.950;2023-02-14T03:22:40;99646.41;;;1.79;94.94
27712;BME280;2377;51.734;8.950;2023-02-14T03:25:25;99646.53;;;1.78;94.48
27712;BME280;2377;51.734;8.950;2023-02-14T03:28:05;99650.78;;;1.77;94.96
27712;BME280;2377;51.734;8.950;2023-02-14T03:30:45;99644.09;;;1.76;94.38
27712;BME280;2377;51.734;8.950;2023-02-14T03:33:21;99643.22;;;1.77;94.51
27712;BME280;2377;51.734;8.950;2023-02-14T03:36:00;99637.38;;;1.77;94.86
27712;BME280;2377;51.734;8.950;2023-02-14T03:38:35;99636.34;;;1.79;95.17
27712;BME280;2377;51.734;8.950;2023-02-14T03:41:11;99637.25;;;1.78;94.59
27712;BME280;2377;51.734;8.950;2023-02-14T03:43:44;99627.97;;;1.79;95.43
27712;BME280;2377;51.734;8.950;2023-02-14T03:46:17;99635.63;;;1.77;94.80
27712;BME280;2377;51.734;8.950;2023-02-14T03:48:49;99625.09;;;1.72;94.45
27712;BME280;2377;51.734;8.950;2023-02-14T03:51:23;99631.81;;;1.72;94.55
27712;BME280;2377;51.734;8.950;2023-02-14T03:53:55;99631.97;;;1.70;94.96
27712;BME280;2377;51.734;8.950;2023-02-14T03:56:33;99627.00;;;1.68;95.00
27712;BME280;2377;51.734;8.950;2023-02-14T03:59:11;99626.22;;;1.68;95.11
27712;BME280;2377;51.734;8.950;2023-02-14T04:01:47;99625.41;;;1.67;94.40
27712;BME280;2377;51.734;8.950;2023-02-14T04:04:21;99623.94;;;1.65;94.65
27712;BME280;2377;51.734;8.950;2023-02-14T04:06:49;99621.50;;;1.63;94.47
27712;BME280;2377;51.734;8.950;2023-02-14T04:09:17;99622.31;;;1.64;94.43
27712;BME280;2377;51.734;8.950;2023-02-14T04:11:46;99625.63;;;1.64;95.00
27712;BME280;2377;51.734;8.950;2023-02-14T04:14:15;99626.44;;;1.65;95.01
27712;BME280;2377;51.734;8.950;2023-02-14T04:16:42;99623.00;;;1.66;95.43
27712;BME280;2377;51.734;8.950;2023-02-14T04:19:27;99617.97;;;1.66;95.01
27712;BME280;2377;51.734;8.950;2023-02-14T04:21:54;99619.09;;;1.62;95.05
27712;BME280;2377;51.734;8.950;2023-02-14T04:24:21;99619.22;;;1.60;95.24
27712;BME280;2377;51.734;8.950;2023-02-14T04:26:49;99623.44;;;1.60;95.27
27712;BME280;2377;51.734;8.950;2023-02-14T04:29:36;99626.66;;;1.62;95.00
27712;BME280;2377;51.734;8.950;2023-02-14T04:32:06;99620.81;;;1.61;95.56
27712;BME280;2377;51.734;8.950;2023-02-14T04:34:34;99623.31;;;1.61;95.73
27712;BME280;2377;51.734;8.950;2023-02-14T04:37:01;99611.44;;;1.63;95.71
27712;BME280;2377;51.734;8.950;2023-02-14T04:39:28;99616.22;;;1.66;95.46
27712;BME280;2377;51.734;8.950;2023-02-14T04:41:57;99611.09;;;1.68;96.15
27712;BME280;2377;51.734;8.950;2023-02-14T04:44:24;99616.03;;;1.69;95.92
27712;BME280;2377;51.734;8.950;2023-02-14T04:46:52;99610.50;;;1.64;95.65
27712;BME280;2377;51.734;8.950;2023-02-14T04:49:19;99616.56;;;1.62;95.69
27712;BME280;2377;51.734;8.950;2023-02-14T04:51:46;99608.31;;;1.60;95.68
27712;BME280;2377;51.734;8.950;2023-02-14T04:54:13;99606.94;;;1.56;95.04
27712;BME280;2377;51.734;8.950;2023-02-14T04:56:40;99606.25;;;1.54;95.21
27712;BME280;2377;51.734;8.950;2023-02-14T04:59:08;99599.59;;;1.53;95.13
27712;BME280;2377;51.734;8.950;2023-02-14T05:01:35;99603.94;;;1.51;95.17
27712;BME280;2377;51.734;8.950;2023-02-14T05:04:02;99600.72;;;1.48;95.86
27712;BME280;2377;51.734;8.950;2023-02-14T05:06:29;99593.28;;;1.47;96.11
27712;BME280;2377;51.734;8.950;2023-02-14T05:08:57;99593.19;;;1.48;96.09
27712;BME280;2377;51.734;8.950;2023-02-14T05:11:25;99589.03;;;1.47;95.79
27712;BME280;2377;51.734;8.950;2023-02-14T05:14:53;99587.16;;;1.38;94.84
27712;BME280;2377;51.734;8.950;2023-02-14T05:17:20;99584.78;;;1.37;95.89
27712;BME280;2377;51.734;8.950;2023-02-14T05:19:47;99591.50;;;1.36;95.07
27712;BME280;2377;51.734;8.950;2023-02-14T05:22:14;99592.44;;;1.35;95.46
27712;BME280;2377;51.734;8.950;2023-02-14T05:24:41;99600.00;;;1.35;95.04
27712;BME280;2377;51.734;8.950;2023-02-14T05:27:08;99586.47;;;1.36;95.79
27712;BME280;2377;51.734;8.950;2023-02-14T05:29:37;99591.31;;;1.39;95.92
27712;BME280;2377;51.734;8.950;2023-02-14T05:32:04;99592.19;;;1.38;97.25
27712;BME280;2377;51.734;8.950;2023-02-14T05:34:33;99596.34;;;1.39;97.42
27712;BME280;2377;51.734;8.950;2023-02-14T05:37:00;99595.56;;;1.39;97.71
27712;BME280;2377;51.734;8.950;2023-02-14T05:39:27;99591.31;;;1.39;97.19
27712;BME280;2377;51.734;8.950;2023-02-14T05:41:54;99591.88;;;1.43;97.37
27712;BME280;2377;51.734;8.950;2023-02-14T05:44:21;99584.31;;;1.43;96.44
27712;BME280;2377;51.734;8.950;2023-02-14T05:46:50;99592.00;;;1.41;96.47
27712;BME280;2377;51.734;8.950;2023-02-14T05:49:17;99586.28;;;1.39;96.85
27712;BME280;2377;51.734;8.950;2023-02-14T05:51:43;99587.06;;;1.40;96.24
27712;BME280;2377;51.734;8.950;2023-02-14T05:54:10;99592.09;;;1.40;96.79
27712;BME280;2377;51.734;8.950;2023-02-14T05:56:37;99594.03;;;1.36;95.95
27712;BME280;2377;51.734;8.950;2023-02-14T05:59:04;99596.66;;;1.35;96.26
27712;BME280;2377;51.734;8.950;2023-02-14T06:01:31;99585.91;;;1.33;96.51
27712;BME280;2377;51.734;8.950;2023-02-14T06:03:59;99591.72;;;1.33;96.02
27712;BME280;2377;51.734;8.950;2023-02-14T06:06:26;99595.38;;;1.29;96.29
27712;BME280;2377;51.734;8.950;2023-02-14T06:08:53;99602.25;;;1.27;95.73
27712;BME280;2377;51.734;8.950;2023-02-14T06:11:22;99595.03;;;1.22;96.04
27712;BME280;2377;51.734;8.950;2023-02-14T06:13:49;99600.16;;;1.21;95.67
27712;BME280;2377;51.734;8.950;2023-02-14T06:16:18;99597.03;;;1.17;96.09
27712;BME280;2377;51.734;8.950;2023-02-14T06:18:45;99594.03;;;1.12;95.75
27712;BME280;2377;51.734;8.950;2023-02-14T06:21:13;99602.38;;;1.13;96.49
27712;BME280;2377;51.734;8.950;2023-02-14T06:23:40;99603.22;;;1.13;96.77
27712;BME280;2377;51.734;8.950;2023-02-14T06:26:07;99599.88;;;1.13;95.85
27712;BME280;2377;51.734;8.950;2023-02-14T06:28:34;99598.28;;;1.12;96.91
27712;BME280;2377;51.734;8.950;2023-02-14T06:31:04;99601.38;;;1.15;97.49
27712;BME280;2377;51.734;8.950;2023-02-14T06:33:31;99603.09;;;1.15;97.18
27712;BME280;2377;51.734;8.950;2023-02-14T06:35:58;99609.63;;;1.17;96.88
27712;BME280;2377;51.734;8.950;2023-02-14T06:38:26;99604.28;;;1.22;97.56
27712;BME280;2377;51.734;8.950;2023-02-14T06:40:53;99611.31;;;1.30;97.64
27712;BME280;2377;51.734;8.950;2023-02-14T06:43:20;99616.50;;;1.39;98.14
27712;BME280;2377;51.734;8.950;2023-02-14T06:45:47;99614.94;;;1.50;99.65
27712;BME280;2377;51.734;8.950;2023-02-14T06:48:14;99620.44;;;1.55;99.39
27712;BME280;2377;51.734;8.950;2023-02-14T06:50:41;99614.19;;;1.60;99.90
27712;BME280;2377;51.734;8.950;2023-02-14T06:53:08;99626.66;;;1.62;99.78
27712;BME280;2377;51.734;8.950;2023-02-14T06:55:36;99621.19;;;1.68;100.00
27712;BME280;2377;51.734;8.950;2023-02-14T06:58:03;99628.50;;;1.71;100.00
27712;BME280;2377;51.734;8.950;2023-02-14T07:00:30;99619.91;;;1.74;100.00
27712;BME280;2377;51.734;8.950;2023-02-14T07:02:57;99619.13;;;1.73;100.00
27712;BME280;2377;51.734;8.950;2023-02-14T07:05:24;99618.22;;;1.74;100.00
27712;BME280;2377;51.734;8.950;2023-02-14T07:07:51;99627.38;;;1.75;100.00
27712;BME280;2377;51.734;8.950;2023-02-14T07:10:19;99624.97;;;1.74;100.00
27712;BME280;2377;51.734;8.950;2023-02-14T07:12:47;99628.09;;;1.77;100.00
27712;BME280;2377;51.734;8.950;2023-02-14T07:15:14;99630.38;;;1.80;100.00
27712;BME280;2377;51.734;8.950;2023-02-14T07:17:42;99629.34;;;1.83;100.00
27712;BME280;2377;51.734;8.950;2023-02-14T07:20:11;99627.28;;;1.88;100.00
27712;BME280;2377;51.734;8.950;2023-02-14T07:22:38;99630.88;;;1.97;100.00
27712;BME280;2377;51.734;8.950;2023-02-14T07:25:06;99631.34;;;2.02;100.00
27712;BME280;2377;51.734;8.950;2023-02-14T07:27:33;99626.66;;;2.08;100.00
27712;BME280;2377;51.734;8.950;2023-02-14T07:30:02;99628.50;;;2.18;100.00
27712;BME280;2377;51.734;8.950;2023-02-14T07:32:29;99631.63;;;2.21;100.00
27712;BME280;2377;51.734;8.950;2023-02-14T07:34:56;99638.47;;;2.30;100.00
27712;BME280;2377;51.734;8.950;2023-02-14T07:37:23;99633.22;;;2.33;100.00
27712;BME280;2377;51.734;8.950;2023-02-14T07:39:50;99635.88;;;2.43;100.00
27712;BME280;2377;51.734;8.950;2023-02-14T07:42:17;99631.16;;;2.50;100.00
27712;BME280;2377;51.734;8.950;2023-02-14T07:44:43;99636.66;;;2.55;100.00
27712;BME280;2377;51.734;8.950;2023-02-14T07:47:12;99629.53;;;2.60;100.00
27712;BME280;2377;51.734;8.950;2023-02-14T07:49:39;99636.88;;;2.63;100.00
27712;BME280;2377;51.734;8.950;2023-02-14T07:52:06;99631.47;;;2.68;100.00
27712;BME280;2377;51.734;8.950;2023-02-14T07:54:33;99628.41;;;2.75;100.00
27712;BME280;2377;51.734;8.950;2023-02-14T07:57:00;99628.16;;;2.79;100.00
27712;BME280;2377;51.734;8.950;2023-02-14T07:59:27;99626.78;;;2.86;100.00
27712;BME280;2377;51.734;8.950;2023-02-14T08:01:54;99625.38;;;2.93;100.00
27712;BME280;2377;51.734;8.950;2023-02-14T08:04:23;99630.66;;;3.01;100.00
27712;BME280;2377;51.734;8.950;2023-02-14T08:06:51;99622.47;;;3.09;100.00
27712;BME280;2377;51.734;8.950;2023-02-14T08:09:18;99614.19;;;3.18;100.00
27712;BME280;2377;51.734;8.950;2023-02-14T08:11:50;99616.53;;;3.31;100.00
27712;BME280;2377;51.734;8.950;2023-02-14T08:14:35;99625.25;;;3.38;100.00
27712;BME280;2377;51.734;8.950;2023-02-14T08:17:02;99623.47;;;3.50;100.00
27712;BME280;2377;51.734;8.950;2023-02-14T08:19:31;99615.31;;;3.57;100.00
27712;BME280;2377;51.734;8.950;2023-02-14T08:21:58;99619.38;;;3.70;100.00
27712;BME280;2377;51.734;8.950;2023-02-14T08:24:25;99610.91;;;3.80;100.00
27712;BME280;2377;51.734;8.950;2023-02-14T08:26:52;99607.41;;;3.93;100.00
27712;BME280;2377;51.734;8.950;2023-02-14T08:29:19;99614.00;;;4.05;100.00
27712;BME280;2377;51.734;8.950;2023-02-14T08:31:46;99606.06;;;4.19;100.00
27712;BME280;2377;51.734;8.950;2023-02-14T08:34:13;99611.59;;;4.34;100.00
27712;BME280;2377;51.734;8.950;2023-02-14T08:36:42;99614.19;;;4.54;100.00
27712;BME280;2377;51.734;8.950;2023-02-14T08:39:10;99616.81;;;4.73;100.00
27712;BME280;2377;51.734;8.950;2023-02-14T08:41:37;99614.97;;;4.95;100.00
27712;BME280;2377;51.734;8.950;2023-02-14T08:44:04;99614.22;;;5.14;100.00
27712;BME280;2377;51.734;8.950;2023-02-14T08:46:31;99617.53;;;5.34;100.00
27712;BME280;2377;51.734;8.950;2023-02-14T08:48:58;99614.47;;;5.49;100.00
27712;BME280;2377;51.734;8.950;2023-02-14T08:51:25;99611.66;;;5.72;100.00
27712;BME280;2377;51.734;8.950;2023-02-14T08:53:53;99616.56;;;5.93;100.00
27712;BME280;2377;51.734;8.950;2023-02-14T08:56:20;99616.97;;;6.08;100.00
27712;BME280;2377;51.734;8.950;2023-02-14T08:58:50;99616.78;;;6.19;98.75
27712;BME280;2377;51.734;8.950;2023-02-14T09:01:17;99614.72;;;6.32;98.06
27712;BME280;2377;51.734;8.950;2023-02-14T09:03:44;99619.63;;;6.44;97.32
27712;BME280;2377;51.734;8.950;2023-02-14T09:06:15;99625.31;;;6.55;97.58
27712;BME280;2377;51.734;8.950;2023-02-14T09:08:43;99618.31;;;6.67;95.24
27712;BME280;2377;51.734;8.950;2023-02-14T09:11:14;99618.25;;;6.77;94.80
27712;BME280;2377;51.734;8.950;2023-02-14T09:13:45;99613.94;;;6.87;93.42
27712;BME280;2377;51.734;8.950;2023-02-14T09:16:14;99614.97;;;6.94;92.97
27712;BME280;2377;51.734;8.950;2023-02-14T09:18:43;99615.13;;;7.11;93.96
27712;BME280;2377;51.734;8.950;2023-02-14T09:21:14;99621.03;;;7.29;92.81
27712;BME280;2377;51.734;8.950;2023-02-14T09:23:41;99612.91;;;7.52;92.12
27712;BME280;2377;51.734;8.950;2023-02-14T09:26:12;99618.66;;;7.72;91.24
27712;BME280;2377;51.734;8.950;2023-02-14T09:28:39;99618.16;;;7.94;91.74
27712;BME280;2377;51.734;8.950;2023-02-14T09:31:12;99614.91;;;8.10;90.24
27712;BME280;2377;51.734;8.950;2023-02-14T09:33:40;99612.13;;;8.30;90.86
27712;BME280;2377;51.734;8.950;2023-02-14T09:36:25;99607.78;;;8.48;89.66
27712;BME280;2377;51.734;8.950;2023-02-14T09:38:52;99613.06;;;8.63;86.50
27712;BME280;2377;51.734;8.950;2023-02-14T09:41:54;99603.38;;;8.66;85.11
27712;BME280;2377;51.734;8.950;2023-02-14T09:44:31;99603.75;;;8.80;85.85
27712;BME280;2377;51.734;8.950;2023-02-14T09:47:10;99604.56;;;8.97;85.34
27712;BME280;2377;51.734;8.950;2023-02-14T09:49:41;99604.75;;;9.12;83.75
27712;BME280;2377;51.734;8.950;2023-02-14T09:52:15;99605.72;;;9.27;83.37
27712;BME280;2377;51.734;8.950;2023-02-14T09:54:50;99605.06;;;9.49;82.49
27712;BME280;2377;51.734;8.950;2023-02-14T09:57:32;99602.69;;;9.64;82.04
27712;BME280;2377;51.734;8.950;2023-02-14T10:00:16;99605.69;;;9.84;82.83
27712;BME280;2377;51.734;8.950;2023-02-14T10:02:57;99605.66;;;10.09;82.16
27712;BME280;2377;51.734;8.950;2023-02-14T10:05:34;99605.28;;;10.28;81.70
27712;BME280;2377;51.734;8.950;2023-02-14T10:08:22;99596.88;;;10.51;81.94
27712;BME280;2377;51.734;8.950;2023-02-14T10:11:01;99602.66;;;10.76;80.23
27712;BME280;2377;51.734;8.950;2023-02-14T10:13:38;99596.06;;;10.82;77.51
27712;BME280;2377;51.734;8.950;2023-02-14T10:16:17;99602.69;;;10.99;78.28
27712;BME280;2377;51.734;8.950;2023-02-14T10:18:53;99599.97;;;11.24;76.58
27712;BME280;2377;51.734;8.950;2023-02-14T10:21:28;99595.13;;;11.29;74.65
27712;BME280;2377;51.734;8.950;2023-02-14T10:24:03;99593.88;;;11.25;73.79
27712;BME280;2377;51.734;8.950;2023-02-14T10:26:37;99589.66;;;11.32;74.18
27712;BME280;2377;51.734;8.950;2023-02-14T10:29:13;99590.47;;;11.47;74.34
27712;BME280;2377;51.734;8.950;2023-02-14T10:31:46;99587.50;;;11.58;75.18
27712;BME280;2377;51.734;8.950;2023-02-14T10:34:29;99585.22;;;11.63;72.45
27712;BME280;2377;51.734;8.950;2023-02-14T10:37:20;99589.00;;;11.53;73.40
27712;BME280;2377;51.734;8.950;2023-02-14T10:40:08;99587.94;;;11.47;73.15
27712;BME280;2377;51.734;8.950;2023-02-14T10:42:49;99580.97;;;11.41;72.87
27712;BME280;2377;51.734;8.950;2023-02-14T10:45:30;99590.63;;;11.31;73.51
27712;BME280;2377;51.734;8.950;2023-02-14T10:48:12;99589.72;;;11.24;73.72
27712;BME280;2377;51.734;8.950;2023-02-14T10:50:49;99586.22;;;11.25;71.84
27712;BME280;2377;51.734;8.950;2023-02-14T10:53:26;99586.72;;;11.20;72.49
27712;BME280;2377;51.734;8.950;2023-02-14T10:56:03;99590.84;;;11.21;73.94
27712;BME280;2377;51.734;8.950;2023-02-14T10:58:36;99593.09;;;11.24;73.74
27712;BME280;2377;51.734;8.950;2023-02-14T11:01:10;99587.78;;;11.26;72.66
27712;BME280;2377;51.734;8.950;2023-02-14T11:03:41;99585.75;;;11.21;72.89
27712;BME280;2377;51.734;8.950;2023-02-14T11:06:13;99590.53;;;11.24;73.99
27712;BME280;2377;51.734;8.950;2023-02-14T11:08:40;99588.56;;;11.26;72.92
27712;BME280;2377;51.734;8.950;2023-02-14T11:11:16;99578.53;;;11.25;73.62
27712;BME280;2377;51.734;8.950;2023-02-14T11:13:44;99578.44;;;11.33;75.15
27712;BME280;2377;51.734;8.950;2023-02-14T11:16:28;99575.72;;;11.34;74.93
27712;BME280;2377;51.734;8.950;2023-02-14T11:19:18;99574.84;;;11.42;73.65
27712;BME280;2377;51.734;8.950;2023-02-14T11:21:48;99568.84;;;11.50;73.29
27712;BME280;2377;51.734;8.950;2023-02-14T11:24:27;99571.94;;;11.45;72.11
27712;BME280;2377;51.734;8.950;2023-02-14T11:26:58;99571.78;;;11.47;72.77
27712;BME280;2377;51.734;8.950;2023-02-14T11:29:31;99570.72;;;11.41;72.83
27712;BME280;2377;51.734;8.950;2023-02-14T11:32:08;99570.72;;;11.41;73.07
27712;BME280;2377;51.734;8.950;2023-02-14T11:38:27;99559.84;;;11.39;73.08
27712;BME280;2377;51.734;8.950;2023-02-14T11:40:57;99552.78;;;11.41;74.38
27712;BME280;2377;51.734;8.950;2023-02-14T11:43:31;99554.31;;;11.50;73.43
27712;BME280;2377;51.734;8.950;2023-02-14T11:46:13;99550.13;;;11.49;74.47
27712;BME280;2377;51.734;8.950;2023-02-14T11:48:57;99553.59;;;11.56;73.50
27712;BME280;2377;51.734;8.950;2023-02-14T11:51:30;99543.81;;;11.60;74.13
27712;BME280;2377;51.734;8.950;2023-02-14T11:54:02;99536.38;;;11.65;74.69
27712;BME280;2377;51.734;8.950;2023-02-14T11:56:50;99538.59;;;11.68;73.75
27712;BME280;2377;51.734;8.950;2023-02-14T11:59:29;99529.94;;;11.69;73.43
27712;BME280;2377;51.734;8.950;2023-02-14T12:02:03;99526.94;;;11.66;73.28
27712;BME280;2377;51.734;8.950;2023-02-14T12:04:43;99526.41;;;11.70;73.37
27712;BME280;2377;51.734;8.950;2023-02-14T12:07:22;99525.44;;;11.71;72.95
27712;BME280;2377;51.734;8.950;2023-02-14T12:10:27;99521.44;;;11.69;72.46
27712;BME280;2377;51.734;8.950;2023-02-14T12:12:58;99520.38;;;11.78;73.31
27712;BME280;2377;51.734;8.950;2023-02-14T12:15:33;99516.34;;;11.83;73.23
27712;BME280;2377;51.734;8.950;2023-02-14T12:18:34;99506.09;;;11.83;72.23
27712;BME280;2377;51.734;8.950;2023-02-14T12:21:46;99500.47;;;11.88;71.97
27712;BME280;2377;51.734;8.950;2023-02-14T12:24:26;99504.69;;;11.96;72.09
27712;BME280;2377;51.734;8.950;2023-02-14T12:27:05;99499.03;;;12.00;72.50
27712;BME280;2377;51.734;8.950;2023-02-14T12:29:45;99500.06;;;12.06;72.14
27712;BME280;2377;51.734;8.950;2023-02-14T12:32:21;99497.09;;;12.02;72.54
27712;BME280;2377;51.734;8.950;2023-02-14T12:34:51;99489.28;;;12.11;72.96
27712;BME280;2377;51.734;8.950;2023-02-14T12:37:32;99490.09;;;12.11;71.90
27712;BME280;2377;51.734;8.950;2023-02-14T12:40:15;99490.88;;;12.12;71.70
27712;BME280;2377;51.734;8.950;2023-02-14T12:43:12;99492.72;;;12.18;72.83
27712;BME280;2377;51.734;8.950;2023-02-14T12:46:11;99484.22;;;12.17;72.48
27712;BME280;2377;51.734;8.950;2023-02-14T12:52:10;99479.47;;;12.14;71.35
27712;BME280;2377;51.734;8.950;2023-02-14T12:55:04;99476.53;;;12.17;71.42
27712;BME280;2377;51.734;8.950;2023-02-14T12:57:44;99462.47;;;12.28;73.75
27712;BME280;2377;51.734;8.950;2023-02-14T13:00:27;99458.53;;;12.32;73.39
27712;BME280;2377;51.734;8.950;2023-02-14T13:07:28;99458.81;;;12.37;73.67
27712;BME280;2377;51.734;8.950;2023-02-14T13:10:18;99451.13;;;12.37;73.93
27712;BME280;2377;51.734;8.950;2023-02-14T13:12:58;99452.31;;;12.41;74.98
27712;BME280;2377;51.734;8.950;2023-02-14T13:15:39;99450.97;;;12.45;75.17
27712;BME280;2377;51.734;8.950;2023-02-14T13:47:47;99407.53;;;12.37;75.53
27712;BME280;2377;51.734;8.950;2023-02-14T13:50:19;99408.13;;;12.39;75.52
27712;BME280;2377;51.734;8.950;2023-02-14T13:52:48;99404.56;;;12.40;76.06
27712;BME280;2377;51.734;8.950;2023-02-14T13:55:19;99400.84;;;12.43;75.93
27712;BME280;2377;51.734;8.950;2023-02-14T13:58:00;99398.72;;;12.46;75.07
27712;BME280;2377;51.734;8.950;2023-02-14T14:00:40;99400.28;;;12.47;75.53
27712;BME280;2377;51.734;8.950;2023-02-14T14:03:15;99400.13;;;12.49;75.12
27712;BME280;2377;51.734;8.950;2023-02-14T14:06:05;99395.41;;;12.53;74.86
27712;BME280;2377;51.734;8.950;2023-02-14T14:08:42;99402.50;;;12.51;74.76
27712;BME280;2377;51.734;8.950;2023-02-14T14:22:26;99367.94;;;12.46;72.15
27712;BME280;2377;51.734;8.950;2023-02-14T14:24:57;99375.63;;;12.46;72.58
27712;BME280;2377;51.734;8.950;2023-02-14T14:27:31;99369.69;;;12.46;72.54
27712;BME280;2377;51.734;8.950;2023-02-14T14:30:01;99373.66;;;12.48;72.63
27712;BME280;2377;51.734;8.950;2023-02-14T14:32:31;99365.78;;;12.50;72.35
27712;BME280;2377;51.734;8.950;2023-02-14T14:35:01;99364.22;;;12.49;72.27
27712;BME280;2377;51.734;8.950;2023-02-14T14:37:32;99359.44;;;12.46;72.73
27712;BME280;2377;51.734;8.950;2023-02-14T14:40:02;99362.81;;;12.46;72.41
27712;BME280;2377;51.734;8.950;2023-02-14T14:42:35;99350.97;;;12.45;72.62
27712;BME280;2377;51.734;8.950;2023-02-14T14:45:17;99359.03;;;12.42;71.96
27712;BME280;2377;51.734;8.950;2023-02-14T14:47:46;99356.84;;;12.39;72.84